Timeline UpdatesTrip UpdatesNews PostsPvt PostsTravel TipsAdmin PostsConv PostsFollowed PostsChat RequestsBlog PostsPNR Posts

Disclaimer
Search
 
 
Thu Oct 2, 2014 07:55:26 ISTHomeTrainsΣChainsAtlasPNRForumGalleryNewsFAQTripsMembersLoginFeedback
No Recent News for this Train
Other Trains in the News **new
Latest...
..
Fri Jul 18, 2014 (11:57PM)
⇐ Return Journey: Train# 18110-Slip

18101/Tatanagar-Jammu Tawi MURI Express

Time-Table HAS CHANGED.
Sep 03 (11:30PM)
Change Departure Station:
Change Arrival Station:
Post a Train Travel TipPost a Train Travel Tip **new
Post a Comment/Question/Picture/VideoPost a Comment/Question/Picture/Video
Pantry/Catering
✓ Pantry Car Avbl
✓ Catering Avbl
Pantry Car is available from Muri To Jammu Tawi because...
Read more...
Pantry Car is attached in Rourkela-Jammu Tawi Exp
Loco/Rake Reversals
PTK/Pathankot Junction (4); ASR/Amritsar Junction (5);
RSA - Rake Sharing
None
Rake/Coach Composition
SLR-GEN-GEN-ST11-ST10-ST9-ST8-ST7-B2-SLR
Loco
TATA WAM-4 (TATA-BRKA); PTRU WDM-3A (BRKA-CAR); GZB WAP-4 (CAR-ASR); LDH...
Read more...
WDM-3A (ASR-JAT)
News    PNR    Forum    Time-Table    Availability    Fare Chart    Map    Arr/Dep History    Trips    Gallery    ΣChains    X/O    Timeline    
Travel Time: 27h 0m    38 halts    Distance: 1245 km    Avg Speed: 46 km/hr
Type: Mail/Express
Zone: SER/South Eastern
Departs @ 14:50 (Avg on time)
Platform# 1
SMTWTFS
Tatanagar Junction/TATA 
Arrives @ 17:50 +1 night (Avg 3h 42m late)
Platform# 3
SMTWTFS
Aligarh Junction/ALJN 

38 halts. 163 intermediate Stations between Tatanagar Junction and Aligarh Junction

Show ALL intermediate Stations  Show Old Time-Table

#CodeStation NameX/OArrivesAvgDepartsAvgHaltPFDay#KmSpeedElevZoneAddress
1TATATatanagar Junction (5)»  -14:50+0110.040164mSER91-657-2423026, Jharkhand
2CNIChandil Junction (4)  15:42-115:44+12m--134.861178mSERChandil, Jharkhand
3MURIMuri Junction (3)X16:50+1717:30+3140m--1102.453254mSER06522-222444, Jharkhand
4RMTRamgarh Cantt. (1)O  18:30+2618:35+275m11155.48352mSERRamgarh District, Jharkhand
5BRKABarkakana Junction (4)O19:15+1119:35+1620m--1160.758341mECR0653-255225, Jharkhand
6PTRUPatratu (3)  19:54+2819:55+301m21179.158373mECRDistt: Ramgarh, Jharkhand
7RAYRay (2)  20:22 20:23+3120:24+322 1m--1206.255447mECRRanchi, Jharkhand
8KLREKhalari (3)  20:29 20:34+3520:30 20:35+371m--1215.351459mECRKhelari, Jharkhand
9TORITori (2)  20:57 21:08+4520:58 21:10+451 2m21243.581515mECRChandwa, Jharkhand
10LTHRLatehar (2)  21:33 21:34+5021:34 21:36+521 2m21276.063381mECRLatehar, Jharkhand
11BRWDBarwadih Junction (3)  22:14+5622:19+555m11316.178295mECRDist. Latehar, Jharkhand
12DTODaltonGanj (3)X  22:40+1:0222:45+1:015m11343.659234mECR230812, Jharkhand
13GHDGarhwa Road Junction (3)  23:19+1:0223:21+1:032m11376.967188mECRPalamu, Jharkhand
14GHQGarhwa (1)  23:30+1:1023:31+1:111m11387.068211mECRGarhwa, Jharkhand
15NUQNagar Untari (1)O  00:05 00:01+1:1500:06+1:161 5m12421.021248mECRGarhwa, Jharkhand
16WDMWyndhamGanj (1)XO  00:39+5600:40+591m12432.735243mECRSonebhadra, Uttar Pradesh
17DXNDuddhinagar  01:19+4501:20+471m22455.342250mECRSonebhadra, Uttar Pradesh
18RNQRenukut (3)  01:54 01:50+4101:55+431 5m12476.429310mECRSonbhadra, Uttar Pradesh
19CPUChopan (3)  03:20+1603:30+1710m22518.147194mECRSH 5A Sonebhadra, Uttar Pradesh
20CUKChurk (1)  03:59 03:58-04:00-1 2m12539.922316mNCRState Highway 14, Uttar Pradesh
21RBGJRoberts Ganj (1)  04:14 04:13-04:15-1 2m12544.734318mNCRRobertsganj, Uttar Pradesh
22CARChunar Junction (5)XO06:30+2906:40+3410m--2620.76785mNCRChunar Junction, Uttar Pradesh
23MZPMirzapur (3)X  07:09 07:08+1:0107:10+1:041 2m--2652.04488mNCRMirzapur, Uttar Pradesh
24BDLVindhyachal (3)  07:21 07:20+1:0907:22+1:131 2m--2659.37788mNCRMirzapur, Uttar Pradesh
25MJAMeja Road (4)XO  07:57 07:56+1:4007:58+1:411 2m--2703.05594mNCRDistrict Allahabad, Uttar Pradesh
26ALDAllahabad Junction (10)XO  08:40+2:0809:05+2:1625m32741.580100mNCRAllahabad 211003, Uttar Pradesh
27FTPFatehpur (3)O  10:34 10:33+2:3510:35+2:371 2m32858.244120mNCRFatehpur, Uttar Pradesh
28CNBKanpur Central (10)X  12:20+2:1612:30+2:2610m72935.838128mNCRKANPUR-208 001, Uttar Pradesh
29PNKPanki (3)XOO  12:49 12:48+2:3812:50+2:411 2m32947.464129mNCRKANPUR-208 020, Uttar Pradesh
30RURARura (4)XO  13:22 13:21+2:4013:23+2:411 2m--2980.271137mNCRJhinjhak, Uttar Pradesh
31JJKJhinjhak (3)  13:40 13:39+2:4213:41+2:431 2m32999.254140mNCRAuraiya, Uttar Pradesh
32PHDPhaphund (4)  14:04 14:03+2:4014:05+2:411 2m--21019.081146mNCRdist. Auraiya, Uttar Pradesh
33BNTBharthana (3)  14:33 14:32+2:4414:34+2:481 2m--21055.354147mNCRBharthana, Uttar Pradesh
34ETWEtawah (5)  14:57 14:56+2:4714:58+2:511 2m221075.2101154mNCRDistt. Etawah, Uttar Pradesh
35SKBShikohabad Junction (4)X  15:32 15:31+3:0215:33+3:051 2m321130.670166mNCRDistrict Firozabad, Uttar Pradesh
36FZDFirozabad (4)XO  15:51 15:50+3:1315:52+3:151 2m321150.528164mNCRFirozabad, Uttar Pradesh
37TDLTundla Junction (5)X  16:28+3:0716:38+3:0610m221167.073167mNCRDistt.Firozabad, Uttar Pradesh
38JLSJalesar Road (1)  17:02 17:01+3:2317:03+3:261 2m121194.957172mNCRMDR 106W, Uttar Pradesh
39HRSHathras Junction (3)  17:25 17:24+3:2317:26+3:251 2m221215.075183mNCRMahamaya Nagar(05722-242803), Uttar Pradesh
40ALJNAligarh Junction (4)•X  17:50+3:4217:55+3:445m321245.287192mNCRAligarh, Uttar Pradesh
41KRJKhurja Junction (4)  18:25+3:5318:27+3:542m--21288.773199mNCRBulandshahr, Uttar Pradesh
42CHLChola (3) new halt!!  18:39+3:5018:41+3:512m--21303.225204mNCRTahsil Bulandshahar, Uttar Pradesh
43GZBGhaziabad Junction (6)XO  20:35+3:0520:40+3:025m221351.322217mNRGhaziabad, Uttar Pradesh
44DLIOld Delhi Junction (16)  21:35+2:5922:00+2:5925m1021371.413219mNRNear Chandni Chowk Metro Station, Delhi NCT
45SZMDelhi Sabzi Mandi (2)X  22:14+3:0522:15+3:061m--21374.469220mNRGulabi Bagh, Delhi NCT
46SNPSonipat (3)O  22:51 22:50+3:1322:52+3:171 2m--21414.744225mNRSonipat, Haryana
47PNPPanipat Junction (5)  23:55 23:53+2:3223:57 23:55+2:322m321459.967235mNRPanipat, Haryana
48KUNKarnal (3)O  00:27 00:26+2:5200:28+2:521 2m231494.340253mNRKarnal, Haryana
49KKDEKurukshetra Junction (3)X  01:23 01:18+2:3101:25 01:20+2:312m131527.470260mNRKurukshetra, Haryana
50SHDMShahbad Markanda (2)X  01:46 01:39+2:3601:47 01:41+2:361 2m231549.622267mNRShahabad Markanda, Haryana
51UMBAmbala Cantt. Junction (7)X  02:35+2:1902:45+2:2310m731569.532278mNRAmbala 133001, Haryana
52UBCAmbala City (3)XO  02:59+2:2403:00+2:251m331577.1102273mNRNH-1, Haryana
53RPJRajpura Junction (3)X  03:17 03:12+2:3103:18+2:301 6m131597.552272mNRNH-1, Punjab
54LDHLudhiana Junction (7)X  04:55 04:56+2:2105:05 05:06+2:3610m331683.133246mNRLudhiana 141001, Punjab
55PHRPhillaur Junction (3)  05:30+2:3405:31+2:351m231696.271246mNRPhillaur, Punjab
56PGWPhagwara Junction (3)X  05:51 05:50+2:3205:52+2:331 2m231718.844245mNRPhagwara, Punjab
57JRCJalandhar Cantt. Junction (3)X  06:14+2:2806:16+2:292m131735.132239mNRNear Rama Mandi, Punjab
58JUCJalandhar City Junction (5)X  06:25+2:2706:30+2:305m131739.959239mNRJalandhar 144001, Punjab
59BEASBeas Junction (2)  07:08 07:07+2:2407:09+2:241 2m131776.063238mNRBeas, Punjab
60ASRAmritsar Junction (5)O07:50+2:3108:20+2:3230m231819.047233mNRAmritsar 143002, Punjab
61BATBatala Junction (2)  09:10+2:3209:12+2:332m--31858.163250mNRBatala, Punjab
62DHWDhariwal (1)X  09:31 09:30+2:3509:32+2:361 2m131876.870259mNRDhariwal, Punjab
63GSPGurdaspur (2)  09:45 09:44+2:3309:46+2:341 2m--31890.867265mNRGurdaspur, Punjab
64DNNDina Nagar (2)  09:57 09:56+2:3609:58+2:371 2m--31901.924273mNRDinanagar, Punjab
65PTKPathankot Junction (4)X11:00+2:1811:20+2:2120m--31926.250331mNRnear ISBT, Punjab
66KTHUKathua (2)X  11:49 11:48+2:2911:50+2:311 2m131949.638396mNRdistt. kathua, Jammu and Kashmir
67HRNRHira Nagar (2)  12:36+2:2112:38+2:212m131978.452380mNRHiranagar, Jammu and Kashmir
68SMBXSamba (2)O  12:56 12:55+2:1912:57+2:231 2m231993.224365mNRDist. Samba, Jammu and Kashmir
69VJPJVijaypur Jammu (2)  13:29 13:26+2:0913:30 13:28+2:121 2m132004.630353mNRdistt. samba, Jammu and Kashmir
70JATJammu Tawi (3)  14:10+1:52-332025.9-337mNRJammu 180002, Jammu and Kashmir
Scroll to Top
Scroll to Bottom